EGAA

Belfast International Airport

Belfast, United Kingdom
METAR EGAA 181420Z 23011KT 9999 FEW027 BKN030 20/16 Q1014
Observed Flight Rules
Aug-18 @ 14:20 UTC (32 minutes ago) Marginal Visual Flight Rules
Wind Visibility Clouds
230° at 11 knots 10,000+ meters
  • Few at 2,700' AGL
  • Broken at 3,000' AGL
Temperatures Readings
Current 20°C / 68°F
Dewpoint 16°C / 61°F
Humidity 78%
Altimeter 29.94" Hg
Pressure 1014 hPa
Elevation 81
METAR EGAA 181420Z 23011KT 9999 FEW027 BKN030 20/16 Q1014
Observed Flight Rules
Aug-18 @ 14:20 UTC
(32 minutes ago)
MVFR
Wind Visibility
230° at 11 knots 10,000+ meters
Clouds
  • Few at 2,700' AGL
  • Broken at 3,000' AGL
Temperature Dewpoint
20°C / 68°F 16°C / 61°F
Humidity Altimeter Pressure
78% 29.94" Hg 1014 hPa